Time;durP1;ratioP1;P1;durP2;ratioP2;P2;SDS_P1;SDS_P2;PMS_P1;PMS_P2;Temp;Humidity;BMP_temperature;BMP_pressure;BME280_temperature;BME280_humidity;BME280_pressure;Samples;Min_cycle;Max_cycle;Signal;HPM_P1;HPM_P2
2023/06/29 00:00:19;;;;;;;;;53.50;42.75;;;;;;;;5066318;28;8818;-61
2023/06/29 00:02:44;;;;;;;;;47.25;39.50;;;;;;;;5064739;28;9654;-61
2023/06/29 00:05:10;;;;;;;;;46.25;38.75;;;;;;;;5060375;28;11613;-60
2023/06/29 00:07:35;;;;;;;;;46.00;38.50;;;;;;;;5056021;28;8830;-60
2023/06/29 00:10:00;;;;;;;;;46.75;38.25;;;;;;;;5066603;28;8818;-61
2023/06/29 00:12:26;;;;;;;;;47.50;39.25;;;;;;;;5066138;28;8846;-61
2023/06/29 00:14:51;;;;;;;;;49.00;39.75;;;;;;;;5066759;28;8915;-61
2023/06/29 00:17:17;;;;;;;;;49.75;39.75;;;;;;;;5067669;28;8838;-61
2023/06/29 00:19:42;;;;;;;;;52.00;41.75;;;;;;;;5068344;28;8814;-62
2023/06/29 00:22:09;;;;;;;;;51.00;43.25;;;;;;;;5065761;28;8794;-60
2023/06/29 00:24:42;;;;;;;;;50.25;41.00;;;;;;;;5056381;28;8824;-61
2023/06/29 00:27:08;;;;;;;;;48.00;40.00;;;;;;;;5063044;28;11456;-60
2023/06/29 00:29:33;;;;;;;;;47.75;40.50;;;;;;;;5070380;28;11472;-60
2023/06/29 00:31:58;;;;;;;;;53.00;43.75;;;;;;;;5070145;28;12312;-60
2023/06/29 00:34:23;;;;;;;;;56.25;46.00;;;;;;;;5062882;28;8826;-61
2023/06/29 00:36:49;;;;;;;;;57.00;46.50;;;;;;;;5071793;28;8940;-60
2023/06/29 00:39:14;;;;;;;;;53.50;43.50;;;;;;;;5066414;28;8837;-59
2023/06/29 00:41:39;;;;;;;;;50.00;42.00;;;;;;;;5066998;28;8836;-61
2023/06/29 00:44:04;;;;;;;;;60.25;49.00;;;;;;;;5068948;28;8911;-61
2023/06/29 00:46:29;;;;;;;;;61.00;47.75;;;;;;;;5061532;28;8802;-60
2023/06/29 00:48:58;;;;;;;;;58.25;47.75;;;;;;;;5060938;28;8826;-60
2023/06/29 01:00:32;;;;;;;;;58.00;46.25;;;;;;;;5067746;28;11532;-60
2023/06/29 01:02:58;;;;;;;;;55.50;45.75;;;;;;;;5054937;28;11570;-61
2023/06/29 01:05:23;;;;;;;;;60.50;46.25;;;;;;;;5060759;28;11698;-61
2023/06/29 01:07:56;;;;;;;;;62.50;49.00;;;;;;;;5063972;28;8820;-60
2023/06/29 01:10:24;;;;;;;;;63.25;49.00;;;;;;;;5063154;28;8840;-60
2023/06/29 01:12:49;;;;;;;;;61.25;48.25;;;;;;;;5068604;28;11521;-60
2023/06/29 01:15:15;;;;;;;;;62.75;48.25;;;;;;;;5063132;28;11527;-60
2023/06/29 01:17:42;;;;;;;;;69.00;54.00;;;;;;;;5069566;28;8810;-61
2023/06/29 01:20:11;;;;;;;;;63.75;51.50;;;;;;;;5061152;28;8899;-60
2023/06/29 01:23:03;;;;;;;;;67.75;53.00;;;;;;;;5071144;28;11554;-60
2023/06/29 01:25:29;;;;;;;;;65.00;51.25;;;;;;;;5065345;28;11117;-60
2023/06/29 01:27:54;;;;;;;;;60.75;48.50;;;;;;;;5058209;28;11625;-60
2023/06/29 01:30:20;;;;;;;;;61.00;48.00;;;;;;;;5068601;28;11669;-60
2023/06/29 01:32:45;;;;;;;;;59.25;48.25;;;;;;;;5068242;28;8887;-62
2023/06/29 01:35:11;;;;;;;;;58.25;47.50;;;;;;;;5069553;28;12353;-61
2023/06/29 01:37:39;;;;;;;;;61.25;48.50;;;;;;;;5064432;28;8880;-61
2023/06/29 01:40:06;;;;;;;;;57.50;46.50;;;;;;;;5066680;28;8798;-61
2023/06/29 01:42:32;;;;;;;;;57.00;46.50;;;;;;;;5071090;28;11492;-61
2023/06/29 01:45:01;;;;;;;;;58.00;45.50;;;;;;;;5071729;28;11475;-62
2023/06/29 01:47:27;;;;;;;;;61.50;48.75;;;;;;;;5069358;28;8814;-61
2023/06/29 01:49:53;;;;;;;;;56.75;46.25;;;;;;;;5065720;28;11614;-61
2023/06/29 01:52:18;;;;;;;;;61.50;50.25;;;;;;;;5067582;28;8841;-61
2023/06/29 01:54:44;;;;;;;;;64.50;52.00;;;;;;;;5064649;28;8924;-61
2023/06/29 01:57:10;;;;;;;;;62.50;51.50;;;;;;;;5051387;28;8801;-61
2023/06/29 01:59:35;;;;;;;;;68.50;54.75;;;;;;;;5062700;28;12396;-60
2023/06/29 02:02:00;;;;;;;;;70.50;57.00;;;;;;;;5068944;28;9625;-59
2023/06/29 02:04:25;;;;;;;;;67.75;53.50;;;;;;;;5065752;28;8840;-60
2023/06/29 02:06:50;;;;;;;;;68.75;54.25;;;;;;;;5057053;28;8841;-59
2023/06/29 02:09:16;;;;;;;;;67.00;52.75;;;;;;;;5062716;28;8802;-61
2023/06/29 02:11:41;;;;;;;;;71.25;54.75;;;;;;;;5062609;28;8814;-60
2023/06/29 02:14:06;;;;;;;;;71.00;57.00;;;;;;;;5070092;28;8806;-61
2023/06/29 02:16:31;;;;;;;;;65.00;50.75;;;;;;;;5066079;28;8857;-61
2023/06/29 02:18:56;;;;;;;;;61.75;49.50;;;;;;;;5059554;28;8863;-61
2023/06/29 02:21:22;;;;;;;;;58.75;47.25;;;;;;;;5066971;28;8798;-60
2023/06/29 02:23:47;;;;;;;;;57.25;46.50;;;;;;;;5063016;28;9650;-60
2023/06/29 02:26:12;;;;;;;;;58.25;46.50;;;;;;;;5062563;28;8802;-60
2023/06/29 02:28:37;;;;;;;;;34.50;32.00;;;;;;;;5067131;28;8829;-60
2023/06/29 02:31:02;;;;;;;;;62.25;49.75;;;;;;;;5067618;28;8821;-60
2023/06/29 02:33:28;;;;;;;;;57.50;45.75;;;;;;;;5070897;28;8806;-61
2023/06/29 02:35:53;;;;;;;;;62.25;48.50;;;;;;;;5068776;28;8861;-60
2023/06/29 02:38:18;;;;;;;;;59.50;48.00;;;;;;;;5065521;28;10185;-61
2023/06/29 02:40:44;;;;;;;;;65.00;51.25;;;;;;;;5068348;28;8972;-60
2023/06/29 02:43:09;;;;;;;;;63.25;48.50;;;;;;;;5067370;28;8916;-62
2023/06/29 02:45:34;;;;;;;;;61.25;49.25;;;;;;;;5068738;28;8794;-60
2023/06/29 02:48:00;;;;;;;;;59.00;46.75;;;;;;;;5065521;28;8885;-60
2023/06/29 02:50:25;;;;;;;;;53.75;43.00;;;;;;;;5068075;28;8809;-60
2023/06/29 02:52:50;;;;;;;;;62.00;49.25;;;;;;;;5067250;28;8833;-60
2023/06/29 02:55:15;;;;;;;;;58.25;48.00;;;;;;;;5050990;28;8796;-60
2023/06/29 02:57:40;;;;;;;;;63.25;51.75;;;;;;;;5066363;28;8842;-61
2023/06/29 03:00:07;;;;;;;;;60.00;47.50;;;;;;;;5068451;28;8790;-60
2023/06/29 03:02:33;;;;;;;;;57.25;46.00;;;;;;;;5063183;28;8831;-60
2023/06/29 03:04:58;;;;;;;;;67.25;53.25;;;;;;;;5063339;28;11540;-60
2023/06/29 03:07:23;;;;;;;;;63.75;51.25;;;;;;;;5061098;28;8818;-61
2023/06/29 03:09:49;;;;;;;;;63.25;50.25;;;;;;;;5063632;28;8840;-60
2023/06/29 03:12:15;;;;;;;;;71.25;58.25;;;;;;;;5056711;28;11644;-60
2023/06/29 03:14:40;;;;;;;;;68.25;55.25;;;;;;;;5066518;28;8810;-61
2023/06/29 03:17:05;;;;;;;;;67.25;54.25;;;;;;;;5070130;28;8873;-60
2023/06/29 03:19:30;;;;;;;;;72.00;58.75;;;;;;;;5055598;28;8846;-61
2023/06/29 03:21:55;;;;;;;;;73.50;58.50;;;;;;;;5062303;28;8854;-60
2023/06/29 03:24:21;;;;;;;;;68.25;54.50;;;;;;;;5058085;28;8829;-60
2023/06/29 03:26:46;;;;;;;;;68.25;55.00;;;;;;;;5067977;28;8840;-61
2023/06/29 03:29:11;;;;;;;;;72.75;56.75;;;;;;;;5065313;28;8889;-60
2023/06/29 03:31:36;;;;;;;;;67.00;53.00;;;;;;;;5067785;28;8924;-60
2023/06/29 03:34:01;;;;;;;;;61.00;48.75;;;;;;;;5070080;28;8794;-61
2023/06/29 03:36:27;;;;;;;;;66.75;53.25;;;;;;;;5062178;28;8828;-59
2023/06/29 03:38:52;;;;;;;;;66.50;53.00;;;;;;;;5062142;28;8801;-61
2023/06/29 03:41:17;;;;;;;;;67.75;53.00;;;;;;;;5064132;28;8836;-60
2023/06/29 03:43:42;;;;;;;;;65.00;52.50;;;;;;;;5059525;28;8880;-60
2023/06/29 03:46:07;;;;;;;;;63.00;51.25;;;;;;;;5055828;28;8984;-61
2023/06/29 03:48:32;;;;;;;;;65.50;53.00;;;;;;;;5067728;28;9604;-60
2023/06/29 03:50:58;;;;;;;;;62.50;50.75;;;;;;;;5069072;28;8802;-60
2023/06/29 03:53:23;;;;;;;;;66.75;52.75;;;;;;;;5062635;28;8879;-60
2023/06/29 03:55:48;;;;;;;;;66.25;52.50;;;;;;;;5054136;28;8841;-60
2023/06/29 03:58:14;;;;;;;;;65.50;53.00;;;;;;;;5066632;28;8893;-60
2023/06/29 04:00:39;;;;;;;;;63.00;51.75;;;;;;;;5066007;28;8778;-60
2023/06/29 04:03:05;;;;;;;;;66.00;51.50;;;;;;;;5070095;28;8844;-60
2023/06/29 04:05:30;;;;;;;;;68.00;51.50;;;;;;;;5072012;28;8801;-59
2023/06/29 04:07:55;;;;;;;;;59.25;49.25;;;;;;;;5067827;28;8893;-61
2023/06/29 04:10:21;;;;;;;;;63.00;49.50;;;;;;;;5068796;28;8810;-59
2023/06/29 04:12:46;;;;;;;;;58.25;47.25;;;;;;;;5070621;28;8883;-61
2023/06/29 04:15:11;;;;;;;;;59.50;47.50;;;;;;;;5071771;28;8851;-60
2023/06/29 04:17:36;;;;;;;;;54.75;44.00;;;;;;;;5070284;28;8918;-61
2023/06/29 04:20:03;;;;;;;;;52.75;42.50;;;;;;;;5071264;28;8861;-61
2023/06/29 04:22:28;;;;;;;;;56.00;45.25;;;;;;;;5065574;28;8855;-61
2023/06/29 04:24:53;;;;;;;;;55.75;46.25;;;;;;;;5062661;28;11540;-60
2023/06/29 04:27:18;;;;;;;;;55.25;45.50;;;;;;;;5058541;28;9535;-60
2023/06/29 04:29:44;;;;;;;;;56.00;45.25;;;;;;;;5064323;28;8852;-59
2023/06/29 04:32:09;;;;;;;;;54.25;44.75;;;;;;;;5064258;28;8864;-60
2023/06/29 04:34:34;;;;;;;;;35.50;30.25;;;;;;;;5059195;28;8808;-59
2023/06/29 04:37:02;;;;;;;;;53.25;43.75;;;;;;;;5062957;28;8869;-60
2023/06/29 04:39:27;;;;;;;;;57.25;44.50;;;;;;;;5067050;28;8782;-60
2023/06/29 04:42:00;;;;;;;;;53.25;42.25;;;;;;;;5066901;28;11532;-61
2023/06/29 04:44:32;;;;;;;;;51.00;41.00;;;;;;;;5069425;28;9266;-60
2023/06/29 04:46:59;;;;;;;;;50.00;40.75;;;;;;;;5056431;28;11492;-59
2023/06/29 04:49:31;;;;;;;;;49.50;40.75;;;;;;;;5057886;28;11564;-62
2023/06/29 04:51:59;;;;;;;;;48.50;39.25;;;;;;;;5069113;28;11517;-61
2023/06/29 04:54:24;;;;;;;;;47.25;38.25;;;;;;;;5070392;28;11172;-61
2023/06/29 04:56:49;;;;;;;;;46.50;38.50;;;;;;;;5068440;28;12080;-60
2023/06/29 04:59:15;;;;;;;;;46.75;37.50;;;;;;;;5065539;28;8806;-61
2023/06/29 05:01:40;;;;;;;;;45.25;36.50;;;;;;;;5066006;28;8797;-63
2023/06/29 05:04:05;;;;;;;;;39.50;34.25;;;;;;;;5070486;28;9540;-61
2023/06/29 05:06:30;;;;;;;;;40.25;35.50;;;;;;;;5069517;28;8877;-59
2023/06/29 05:08:55;;;;;;;;;35.50;31.75;;;;;;;;5066492;28;8921;-60
2023/06/29 05:11:21;;;;;;;;;41.75;34.50;;;;;;;;5053352;28;8836;-60
2023/06/29 05:13:46;;;;;;;;;41.00;35.75;;;;;;;;5059763;28;8817;-61
2023/06/29 05:16:12;;;;;;;;;45.00;35.50;;;;;;;;5066251;28;8884;-60
2023/06/29 05:18:37;;;;;;;;;41.00;35.50;;;;;;;;5066914;28;8848;-59
2023/06/29 05:21:03;;;;;;;;;33.75;32.00;;;;;;;;5063680;28;9612;-60
2023/06/29 05:23:28;;;;;;;;;30.25;28.25;;;;;;;;5071816;28;9572;-59
2023/06/29 05:25:54;;;;;;;;;39.00;33.25;;;;;;;;5072342;28;10500;-59
2023/06/29 05:28:19;;;;;;;;;39.00;33.50;;;;;;;;5071139;28;8797;-60
2023/06/29 05:30:44;;;;;;;;;35.50;33.25;;;;;;;;5064186;28;8805;-59
2023/06/29 05:33:09;;;;;;;;;38.50;33.50;;;;;;;;5062828;28;8916;-59
2023/06/29 05:35:35;;;;;;;;;40.50;33.25;;;;;;;;5057812;28;9723;-60
2023/06/29 05:38:00;;;;;;;;;36.50;32.50;;;;;;;;5068086;28;8822;-60
2023/06/29 05:40:26;;;;;;;;;36.25;32.75;;;;;;;;5071952;28;8937;-60
2023/06/29 05:42:51;;;;;;;;;41.50;34.75;;;;;;;;5052266;28;8893;-60
2023/06/29 05:45:16;;;;;;;;;40.75;34.25;;;;;;;;5062294;28;8810;-60
2023/06/29 05:47:41;;;;;;;;;36.75;32.75;;;;;;;;5058213;28;8844;-60
2023/06/29 05:50:07;;;;;;;;;38.50;33.50;;;;;;;;5069576;28;8810;-60
2023/06/29 05:52:33;;;;;;;;;42.25;33.25;;;;;;;;5055119;28;8845;-60
2023/06/29 05:54:59;;;;;;;;;43.00;34.00;;;;;;;;5059777;28;8788;-59
2023/06/29 05:57:24;;;;;;;;;37.25;32.50;;;;;;;;5053754;28;10653;-59
2023/06/29 05:59:49;;;;;;;;;36.75;32.25;;;;;;;;5071077;28;8822;-61
2023/06/29 06:02:14;;;;;;;;;40.00;32.75;;;;;;;;5060106;28;9019;-59
2023/06/29 06:04:39;;;;;;;;;40.25;35.00;;;;;;;;5058016;28;8821;-58
2023/06/29 06:07:05;;;;;;;;;38.50;33.00;;;;;;;;5056511;28;8821;-60
2023/06/29 06:09:30;;;;;;;;;43.25;35.50;;;;;;;;5057637;28;8793;-60
2023/06/29 06:11:55;;;;;;;;;29.00;26.50;;;;;;;;5066249;28;8796;-60
2023/06/29 06:14:20;;;;;;;;;43.25;34.75;;;;;;;;5064017;28;8908;-61
2023/06/29 06:16:46;;;;;;;;;41.25;35.00;;;;;;;;5065493;28;9639;-61
2023/06/29 06:19:11;;;;;;;;;35.50;32.75;;;;;;;;5053479;28;8834;-60
2023/06/29 06:21:36;;;;;;;;;42.50;35.25;;;;;;;;5064244;28;9090;-61
2023/06/29 06:24:01;;;;;;;;;45.25;35.75;;;;;;;;5066691;28;8904;-59
2023/06/29 06:26:28;;;;;;;;;39.00;33.75;;;;;;;;5066539;28;8995;-60
2023/06/29 06:28:53;;;;;;;;;38.50;34.75;;;;;;;;5068563;28;8786;-59
2023/06/29 06:31:18;;;;;;;;;38.50;32.50;;;;;;;;5067647;28;10871;-60
2023/06/29 06:33:45;;;;;;;;;41.00;33.75;;;;;;;;5069185;28;10256;-60
2023/06/29 06:36:11;;;;;;;;;41.25;35.50;;;;;;;;5063924;28;9088;-59
2023/06/29 06:38:36;;;;;;;;;38.25;33.50;;;;;;;;5058441;28;11552;-60
2023/06/29 06:41:01;;;;;;;;;40.00;32.75;;;;;;;;5063416;28;8912;-60
2023/06/29 06:43:26;;;;;;;;;41.75;35.00;;;;;;;;5061754;28;8897;-60
2023/06/29 06:45:52;;;;;;;;;41.50;34.25;;;;;;;;5055349;28;8808;-60
2023/06/29 06:48:18;;;;;;;;;43.50;35.50;;;;;;;;5050571;28;8856;-59
2023/06/29 06:50:43;;;;;;;;;39.50;34.50;;;;;;;;5052346;28;8870;-59
2023/06/29 06:53:09;;;;;;;;;32.25;29.75;;;;;;;;5062297;28;10544;-60
2023/06/29 06:55:34;;;;;;;;;42.25;35.50;;;;;;;;5070136;28;9540;-60
2023/06/29 06:57:59;;;;;;;;;40.50;35.00;;;;;;;;5067656;28;8825;-60
2023/06/29 07:00:26;;;;;;;;;44.50;38.25;;;;;;;;5068099;28;9552;-59
2023/06/29 07:02:51;;;;;;;;;43.00;34.25;;;;;;;;5070085;28;8794;-59
2023/06/29 07:05:17;;;;;;;;;43.50;36.75;;;;;;;;5049070;28;10647;-60
2023/06/29 07:07:42;;;;;;;;;37.50;32.75;;;;;;;;5054691;28;8818;-59
2023/06/29 07:10:08;;;;;;;;;40.00;34.75;;;;;;;;5067241;28;8821;-59
2023/06/29 07:12:33;;;;;;;;;43.50;35.25;;;;;;;;5059996;28;8826;-60
2023/06/29 07:14:58;;;;;;;;;43.50;36.25;;;;;;;;5070662;28;8877;-60
2023/06/29 07:17:24;;;;;;;;;40.25;34.00;;;;;;;;5059935;28;8927;-60
2023/06/29 07:19:49;;;;;;;;;44.50;36.25;;;;;;;;5050493;28;8824;-60
2023/06/29 07:22:14;;;;;;;;;41.50;35.00;;;;;;;;5058327;28;8798;-59
2023/06/29 07:24:39;;;;;;;;;36.50;33.50;;;;;;;;5061507;28;8840;-59
2023/06/29 07:27:05;;;;;;;;;38.25;33.75;;;;;;;;5063303;28;8805;-59
2023/06/29 07:29:30;;;;;;;;;41.25;35.00;;;;;;;;5057486;28;8801;-60
2023/06/29 07:31:56;;;;;;;;;39.75;33.75;;;;;;;;5069897;28;8806;-59
2023/06/29 07:34:23;;;;;;;;;41.75;35.25;;;;;;;;5054241;28;8804;-60
2023/06/29 07:36:48;;;;;;;;;41.25;35.25;;;;;;;;5065134;28;8814;-60
2023/06/29 07:39:14;;;;;;;;;36.00;32.50;;;;;;;;5074355;28;10621;-59
2023/06/29 07:41:39;;;;;;;;;37.50;33.25;;;;;;;;5073867;28;8786;-59
2023/06/29 07:44:04;;;;;;;;;42.50;34.25;;;;;;;;5057204;28;8812;-59
2023/06/29 07:46:31;;;;;;;;;41.75;34.00;;;;;;;;5067599;28;8817;-59
2023/06/29 07:48:58;;;;;;;;;41.25;34.50;;;;;;;;5073544;28;8786;-60
2023/06/29 07:51:24;;;;;;;;;38.50;33.50;;;;;;;;5072094;28;10353;-60
2023/06/29 07:53:50;;;;;;;;;41.75;35.00;;;;;;;;5061767;28;10624;-60
2023/06/29 07:56:15;;;;;;;;;37.75;34.25;;;;;;;;5069158;28;8786;-60
2023/06/29 07:58:40;;;;;;;;;40.50;35.00;;;;;;;;5067082;28;10480;-59
2023/06/29 08:01:05;;;;;;;;;36.25;32.25;;;;;;;;5061458;28;8901;-60
2023/06/29 08:03:32;;;;;;;;;35.00;32.50;;;;;;;;5068450;28;8818;-60
2023/06/29 08:05:57;;;;;;;;;39.75;33.25;;;;;;;;5067664;28;8770;-60
2023/06/29 08:08:22;;;;;;;;;39.00;34.75;;;;;;;;5071778;28;10656;-59
2023/06/29 08:10:48;;;;;;;;;35.50;32.25;;;;;;;;5068194;28;8830;-60
2023/06/29 08:13:14;;;;;;;;;39.50;34.50;;;;;;;;5066701;28;8895;-59
2023/06/29 08:15:39;;;;;;;;;37.75;33.50;;;;;;;;5068120;28;10279;-59
2023/06/29 08:18:04;;;;;;;;;36.75;32.75;;;;;;;;5064863;28;8817;-59
2023/06/29 08:20:29;;;;;;;;;36.75;32.50;;;;;;;;5069889;28;8846;-59
2023/06/29 08:22:55;;;;;;;;;39.50;33.25;;;;;;;;5072446;28;8852;-59
2023/06/29 08:25:22;;;;;;;;;40.25;33.25;;;;;;;;5072342;28;8846;-60
2023/06/29 08:27:49;;;;;;;;;40.00;35.50;;;;;;;;5067003;28;8805;-60
2023/06/29 08:30:14;;;;;;;;;37.00;33.00;;;;;;;;5067493;28;10373;-59
2023/06/29 08:32:39;;;;;;;;;39.50;33.00;;;;;;;;5065498;28;10639;-59
2023/06/29 08:35:05;;;;;;;;;42.00;35.00;;;;;;;;5065525;28;8813;-63
2023/06/29 08:37:30;;;;;;;;;38.50;33.50;;;;;;;;5072450;28;8830;-59
2023/06/29 08:39:58;;;;;;;;;37.25;33.50;;;;;;;;5071367;28;8809;-61
2023/06/29 08:42:24;;;;;;;;;39.00;32.75;;;;;;;;5062571;28;8793;-59
2023/06/29 08:44:49;;;;;;;;;37.50;34.00;;;;;;;;5069004;28;10280;-60
2023/06/29 08:47:16;;;;;;;;;42.00;36.00;;;;;;;;5069882;28;8853;-59
2023/06/29 08:49:42;;;;;;;;;40.75;32.75;;;;;;;;5064886;28;8814;-58
2023/06/29 08:52:10;;;;;;;;;36.75;32.50;;;;;;;;5066412;28;10563;-59
2023/06/29 08:54:36;;;;;;;;;44.25;36.75;;;;;;;;5065893;28;11491;-59
2023/06/29 08:57:02;;;;;;;;;44.00;35.25;;;;;;;;5061891;28;10603;-59
2023/06/29 08:59:27;;;;;;;;;45.00;35.75;;;;;;;;5059830;28;8806;-59
2023/06/29 09:01:53;;;;;;;;;45.75;37.00;;;;;;;;5062942;28;10761;-59
2023/06/29 09:04:18;;;;;;;;;41.25;35.50;;;;;;;;5057549;28;8806;-59
2023/06/29 09:06:43;;;;;;;;;40.25;35.00;;;;;;;;5070448;28;8921;-58
2023/06/29 09:09:09;;;;;;;;;41.25;35.75;;;;;;;;5068558;28;8860;-59
2023/06/29 09:11:35;;;;;;;;;43.25;35.50;;;;;;;;5059840;28;8812;-59
2023/06/29 09:14:07;;;;;;;;;40.50;34.75;;;;;;;;5057802;28;8820;-59
2023/06/29 09:16:34;;;;;;;;;41.75;35.00;;;;;;;;5067413;28;8814;-58
2023/06/29 09:18:59;;;;;;;;;42.25;36.00;;;;;;;;5058120;28;10558;-58
2023/06/29 09:21:26;;;;;;;;;41.25;35.25;;;;;;;;5070902;28;10701;-59
2023/06/29 09:23:54;;;;;;;;;43.00;36.75;;;;;;;;5056111;28;8793;-58
2023/06/29 09:26:22;;;;;;;;;44.75;37.25;;;;;;;;5064418;28;11465;-58
2023/06/29 09:28:48;;;;;;;;;39.75;34.25;;;;;;;;5058456;28;10536;-59
2023/06/29 09:31:13;;;;;;;;;40.25;35.75;;;;;;;;5066945;28;10569;-59
2023/06/29 09:33:39;;;;;;;;;42.75;35.75;;;;;;;;5065307;28;8830;-59
2023/06/29 09:36:06;;;;;;;;;44.25;36.00;;;;;;;;5066761;28;8917;-59
2023/06/29 09:38:32;;;;;;;;;41.50;35.75;;;;;;;;5050717;28;8800;-59
2023/06/29 09:41:00;;;;;;;;;45.50;38.50;;;;;;;;5057400;28;10696;-59
2023/06/29 09:43:26;;;;;;;;;41.25;35.50;;;;;;;;5058961;28;8779;-60
2023/06/29 09:45:57;;;;;;;;;46.00;39.00;;;;;;;;5069702;28;11144;-59
2023/06/29 09:48:23;;;;;;;;;45.00;38.00;;;;;;;;5058085;28;11119;-59
2023/06/29 09:50:50;;;;;;;;;43.50;37.50;;;;;;;;5062514;28;10886;-59
2023/06/29 09:53:15;;;;;;;;;40.25;35.00;;;;;;;;5072871;28;10627;-59
2023/06/29 09:55:42;;;;;;;;;42.50;36.75;;;;;;;;5067374;28;10495;-59
2023/06/29 09:58:08;;;;;;;;;45.50;38.25;;;;;;;;5060422;28;8787;-59
2023/06/29 10:00:34;;;;;;;;;42.00;36.25;;;;;;;;5058592;28;10716;-62
2023/06/29 10:02:59;;;;;;;;;44.75;36.25;;;;;;;;5062176;28;8798;-61
2023/06/29 10:05:24;;;;;;;;;45.25;36.75;;;;;;;;5062371;28;11672;-61
2023/06/29 10:07:53;;;;;;;;;42.75;35.50;;;;;;;;5069180;28;8818;-61
2023/06/29 10:10:20;;;;;;;;;35.50;32.00;;;;;;;;5064576;28;8790;-60
2023/06/29 10:12:48;;;;;;;;;39.75;34.75;;;;;;;;5060812;28;10406;-61
2023/06/29 10:15:15;;;;;;;;;41.00;34.00;;;;;;;;5070712;28;10772;-62
2023/06/29 10:17:52;;;;;;;;;41.75;35.00;;;;;;;;5071128;28;10571;-60
2023/06/29 10:20:18;;;;;;;;;45.00;37.75;;;;;;;;5070087;28;10463;-61
2023/06/29 10:22:44;;;;;;;;;39.00;32.50;;;;;;;;5071371;28;10684;-61
2023/06/29 10:25:12;;;;;;;;;36.50;32.50;;;;;;;;5069742;28;10364;-60
2023/06/29 10:27:38;;;;;;;;;44.50;35.75;;;;;;;;5070245;28;10323;-62
2023/06/29 10:30:04;;;;;;;;;36.75;32.75;;;;;;;;5066626;28;11246;-61
2023/06/29 10:32:30;;;;;;;;;38.75;33.50;;;;;;;;5069689;28;9553;-60
2023/06/29 10:34:59;;;;;;;;;40.50;36.00;;;;;;;;5066277;28;8855;-60
2023/06/29 10:37:31;;;;;;;;;40.75;35.25;;;;;;;;5050896;28;10507;-61
2023/06/29 10:39:58;;;;;;;;;39.00;34.25;;;;;;;;5050435;28;10429;-60
2023/06/29 10:42:23;;;;;;;;;41.25;35.25;;;;;;;;5050261;28;10386;-61
2023/06/29 10:44:48;;;;;;;;;43.25;34.50;;;;;;;;5050458;28;10718;-61
2023/06/29 10:47:38;;;;;;;;;37.25;33.25;;;;;;;;5049549;28;8801;-61
2023/06/29 10:50:17;;;;;;;;;42.00;35.50;;;;;;;;5063671;28;8796;-61
2023/06/29 10:52:43;;;;;;;;;41.00;33.75;;;;;;;;5055819;28;10498;-61
2023/06/29 10:55:15;;;;;;;;;35.50;32.75;;;;;;;;5050492;28;10650;-60
2023/06/29 10:57:44;;;;;;;;;39.75;33.75;;;;;;;;5057085;28;8813;-61
2023/06/29 11:00:09;;;;;;;;;43.00;35.75;;;;;;;;5050346;28;10455;-60
2023/06/29 11:02:34;;;;;;;;;43.75;37.25;;;;;;;;5049875;28;10561;-62
2023/06/29 11:05:00;;;;;;;;;35.75;32.75;;;;;;;;5050474;28;9718;-61
2023/06/29 11:07:25;;;;;;;;;42.50;36.25;;;;;;;;5050136;28;9674;-61
2023/06/29 11:10:00;;;;;;;;;42.75;35.00;;;;;;;;5066226;28;8814;-60
2023/06/29 11:12:26;;;;;;;;;45.25;38.25;;;;;;;;5052205;28;8815;-61
2023/06/29 11:14:51;;;;;;;;;44.75;38.00;;;;;;;;5050025;28;10962;-60
2023/06/29 11:17:17;;;;;;;;;37.75;32.00;;;;;;;;5050210;28;8842;-61
2023/06/29 11:19:44;;;;;;;;;46.00;39.25;;;;;;;;5050152;28;8796;-60
2023/06/29 11:22:10;;;;;;;;;40.25;34.00;;;;;;;;5050167;28;11753;-60
2023/06/29 11:24:36;;;;;;;;;44.00;36.75;;;;;;;;5050152;28;10841;-60
2023/06/29 11:27:02;;;;;;;;;43.50;37.00;;;;;;;;5060261;28;8810;-62
2023/06/29 11:29:28;;;;;;;;;47.25;39.50;;;;;;;;5049083;28;10813;-60
2023/06/29 11:31:53;;;;;;;;;44.50;36.50;;;;;;;;5049574;28;11061;-61
2023/06/29 11:34:18;;;;;;;;;45.50;38.25;;;;;;;;5049591;28;11688;-62
2023/06/29 11:36:44;;;;;;;;;48.00;37.50;;;;;;;;5058858;28;9635;-61
2023/06/29 11:39:10;;;;;;;;;46.25;38.00;;;;;;;;5069806;28;8802;-59
2023/06/29 11:41:36;;;;;;;;;48.75;40.75;;;;;;;;5069340;28;8770;-61
2023/06/29 11:44:01;;;;;;;;;47.50;40.00;;;;;;;;5068987;28;11991;-62
2023/06/29 11:46:27;;;;;;;;;45.25;38.50;;;;;;;;5064788;28;9545;-61
2023/06/29 11:48:56;;;;;;;;;49.50;39.00;;;;;;;;5063068;28;8852;-61
2023/06/29 11:51:24;;;;;;;;;46.25;39.00;;;;;;;;5069653;28;8800;-62
2023/06/29 11:53:50;;;;;;;;;48.75;40.00;;;;;;;;5069785;28;11541;-61
2023/06/29 11:56:34;;;;;;;;;44.00;37.25;;;;;;;;5062558;28;11343;-61
2023/06/29 11:59:10;;;;;;;;;46.25;39.25;;;;;;;;5049284;28;8840;-61
2023/06/29 12:01:36;;;;;;;;;47.75;39.50;;;;;;;;5049494;28;11126;-61
2023/06/29 12:04:03;;;;;;;;;51.00;42.50;;;;;;;;5062258;28;11520;-61
2023/06/29 12:06:28;;;;;;;;;49.50;40.50;;;;;;;;5048228;28;8872;-61
2023/06/29 12:08:53;;;;;;;;;45.75;39.00;;;;;;;;5059312;28;11104;-61
2023/06/29 12:11:19;;;;;;;;;48.75;40.25;;;;;;;;5056614;28;8862;-60
2023/06/29 12:13:45;;;;;;;;;46.25;38.75;;;;;;;;5062731;28;9539;-61
2023/06/29 12:16:10;;;;;;;;;49.25;39.75;;;;;;;;5049358;28;8938;-61
2023/06/29 12:18:35;;;;;;;;;48.00;39.25;;;;;;;;5065525;28;11220;-61
2023/06/29 12:21:01;;;;;;;;;52.00;42.75;;;;;;;;5055849;28;8828;-61
2023/06/29 12:23:26;;;;;;;;;51.75;43.00;;;;;;;;5052177;28;8832;-61
2023/06/29 12:25:51;;;;;;;;;49.25;40.50;;;;;;;;5052679;28;8951;-62
2023/06/29 12:28:17;;;;;;;;;49.25;41.75;;;;;;;;5052272;28;8828;-61
2023/06/29 12:30:42;;;;;;;;;46.00;39.50;;;;;;;;5052880;28;8825;-60
2023/06/29 12:33:09;;;;;;;;;49.00;41.00;;;;;;;;5057896;28;8829;-61
2023/06/29 12:35:34;;;;;;;;;47.50;39.00;;;;;;;;5060873;28;8827;-61
2023/06/29 12:37:59;;;;;;;;;40.75;35.00;;;;;;;;5052155;28;11046;-62
2023/06/29 12:40:24;;;;;;;;;45.50;38.75;;;;;;;;5052721;28;8820;-62
2023/06/29 12:42:51;;;;;;;;;40.00;34.50;;;;;;;;5051948;28;8836;-61
2023/06/29 12:45:17;;;;;;;;;44.50;37.25;;;;;;;;5052720;28;8832;-60
2023/06/29 12:47:42;;;;;;;;;44.00;36.75;;;;;;;;5061750;28;10880;-62
2023/06/29 12:50:07;;;;;;;;;48.25;39.50;;;;;;;;5072607;28;8856;-61
2023/06/29 12:52:32;;;;;;;;;46.25;39.25;;;;;;;;5061997;28;8860;-61
2023/06/29 12:54:58;;;;;;;;;44.50;38.00;;;;;;;;5062033;28;9615;-61
2023/06/29 12:57:26;;;;;;;;;43.50;37.25;;;;;;;;5051883;28;8820;-61
2023/06/29 12:59:52;;;;;;;;;37.25;32.00;;;;;;;;5052357;28;8852;-60
2023/06/29 13:02:18;;;;;;;;;38.00;33.25;;;;;;;;5059273;28;10735;-60
2023/06/29 13:04:43;;;;;;;;;43.75;35.25;;;;;;;;5069695;28;10716;-61
2023/06/29 13:07:08;;;;;;;;;43.50;35.75;;;;;;;;5067008;28;8837;-61
2023/06/29 13:09:36;;;;;;;;;39.00;34.50;;;;;;;;5062247;28;8910;-60
2023/06/29 13:12:02;;;;;;;;;38.75;34.75;;;;;;;;5057306;28;8806;-61
2023/06/29 13:14:31;;;;;;;;;39.75;32.75;;;;;;;;5065513;28;10489;-61
2023/06/29 13:16:57;;;;;;;;;37.75;33.75;;;;;;;;5052243;28;10739;-60
2023/06/29 13:19:25;;;;;;;;;36.50;32.00;;;;;;;;5051731;28;10734;-60
2023/06/29 13:21:51;;;;;;;;;37.75;33.25;;;;;;;;5055032;28;11526;-60
2023/06/29 13:24:16;;;;;;;;;36.00;32.50;;;;;;;;5059562;28;10570;-61
2023/06/29 13:26:41;;;;;;;;;34.50;31.75;;;;;;;;5051441;28;8851;-61
2023/06/29 13:29:07;;;;;;;;;37.50;32.75;;;;;;;;5051486;28;8809;-61
2023/06/29 13:31:32;;;;;;;;;38.50;32.50;;;;;;;;5051708;28;8816;-61
2023/06/29 13:33:57;;;;;;;;;37.75;33.00;;;;;;;;5062572;28;8912;-60
2023/06/29 13:36:22;;;;;;;;;36.00;32.00;;;;;;;;5067191;28;8840;-60
2023/06/29 13:38:48;;;;;;;;;37.25;32.00;;;;;;;;5054003;28;8845;-61
2023/06/29 13:41:13;;;;;;;;;32.25;30.25;;;;;;;;5056460;28;8910;-60
2023/06/29 13:43:38;;;;;;;;;37.25;31.75;;;;;;;;5051389;28;8927;-61
2023/06/29 13:46:03;;;;;;;;;31.00;29.25;;;;;;;;5051983;28;8873;-61
2023/06/29 13:48:29;;;;;;;;;31.75;28.50;;;;;;;;5051633;28;8835;-61
2023/06/29 13:50:54;;;;;;;;;29.25;27.50;;;;;;;;5057202;28;8858;-64
2023/06/29 13:53:19;;;;;;;;;26.50;25.50;;;;;;;;5053501;28;8859;-62
2023/06/29 13:55:45;;;;;;;;;27.25;25.00;;;;;;;;5069333;28;8826;-60
2023/06/29 13:58:11;;;;;;;;;28.00;26.50;;;;;;;;5070552;28;8774;-62
2023/06/29 14:00:36;;;;;;;;;27.25;25.50;;;;;;;;5071304;28;9733;-61
2023/06/29 14:03:02;;;;;;;;;29.75;26.50;;;;;;;;5067899;28;8837;-61
2023/06/29 14:05:28;;;;;;;;;30.75;29.25;;;;;;;;5071323;28;8806;-61
2023/06/29 14:07:53;;;;;;;;;30.75;27.00;;;;;;;;5069137;28;8785;-61
2023/06/29 14:10:19;;;;;;;;;22.75;21.00;;;;;;;;5070929;28;10048;-61
2023/06/29 14:12:44;;;;;;;;;21.67;21.67;;;;;;;;5062375;28;9608;-62
2023/06/29 14:15:10;;;;;;;;;23.00;21.25;;;;;;;;5064965;28;8790;-62
2023/06/29 14:17:35;;;;;;;;;20.50;19.50;;;;;;;;5070054;28;8972;-60
2023/06/29 14:20:00;;;;;;;;;21.00;17.75;;;;;;;;5070897;28;8822;-62
2023/06/29 14:22:25;;;;;;;;;18.33;16.00;;;;;;;;5071338;28;8917;-62
2023/06/29 14:24:51;;;;;;;;;20.67;20.00;;;;;;;;5070908;28;8838;-60
2023/06/29 14:27:17;;;;;;;;;20.67;20.33;;;;;;;;5070884;28;8892;-60